首页
METAR-TAF:

METAR-TAF

机场 :

哈尔滨太平国际机场

哈尔滨, 中华人民共和国

纬度: 45-45N, 经度: 126-46E, 海拔: 143米

当前天气观测

该预报发布于1小时和9分钟前的22:00 UTC
风速12节,风向西
温度 9°C
湿度 87%
气压 988 hPa
能见度10公里或以上
散云层高于1000英尺
阴天层高于2600英尺

METAR: ZYHB 202200Z 26006MPS 9999 SCT010 OVC026 09/07 Q0988 NOSIG

时间: 07:09 (23:09 UTC)

预报

该预报发布于8小时和6分钟前的15:03 UTC
预报有效从20日的 18点(UTC)到 21日的 18点(UTC)
风速12节,风向西,有时为23节阵风
能見度: 6000
多云层高于2000英尺
小雨

TAF: ZYHB 201503Z 2018/2118 28006G12MPS 6000 -RA BKN020 TX12/2106Z TN07/2021Z

超过4000个机场的气象观测和天气预报(METAR&TAF报告)。

可查询的气象台以黄色和红色小点在地图上表示。

将鼠标移到小点上方,可查看气象台名称。

然后点击查看天气观测和预报。

如需切换地图:点击带黑十字的绿色按钮放大地图;点击带横线的绿色按钮缩小地图;或者点击绿色箭头查看邻近地区的地图。


METAR-TAF: